createdAt,value
2023-02-16T00:01:30.330Z,6.59
2023-02-16T00:04:13.480Z,6.53
2023-02-16T00:06:45.877Z,6.55
2023-02-16T00:09:18.719Z,6.55
2023-02-16T00:12:11.836Z,6.53
2023-02-16T00:14:43.935Z,6.47
2023-02-16T00:17:15.962Z,6.49
2023-02-16T00:19:47.975Z,6.44
2023-02-16T00:22:19.960Z,6.41
2023-02-16T00:24:52.306Z,6.41
2023-02-16T00:27:24.275Z,6.35
2023-02-16T00:29:56.396Z,6.36
2023-02-16T00:32:28.539Z,6.31
2023-02-16T00:35:01.127Z,6.28
2023-02-16T00:37:33.077Z,6.29
2023-02-16T00:40:05.591Z,6.28
2023-02-16T00:42:38.311Z,6.28
2023-02-16T00:45:21.685Z,6.24
2023-02-16T00:47:54.987Z,6.21
2023-02-16T00:50:35.331Z,6.24
2023-02-16T00:53:07.318Z,6.22
2023-02-16T00:55:42.042Z,6.17
2023-02-16T00:58:26.168Z,6.17
2023-02-16T01:01:08.913Z,6.14
2023-02-16T01:03:41.422Z,6.14
2023-02-16T01:06:31.796Z,6.17
2023-02-16T01:09:35.138Z,6.14
2023-02-16T01:12:17.353Z,6.16
2023-02-16T01:14:53.861Z,6.15
2023-02-16T01:17:25.923Z,6.16
2023-02-16T01:19:57.928Z,6.18
2023-02-16T01:22:33.494Z,6.11
2023-02-16T01:25:05.966Z,6.12
2023-02-16T01:27:39.158Z,6.10
2023-02-16T01:30:21.960Z,6.08
2023-02-16T01:32:54.101Z,6.06
2023-02-16T01:35:33.174Z,6.02
2023-02-16T01:38:05.228Z,6.02
2023-02-16T01:40:57.874Z,5.92
2023-02-16T01:43:46.983Z,5.93
2023-02-16T01:46:25.902Z,5.89
2023-02-16T01:48:57.844Z,5.86
2023-02-16T01:51:50.624Z,5.94
2023-02-16T01:54:31.799Z,5.90
2023-02-16T01:57:05.816Z,5.89
2023-02-16T01:59:44.062Z,5.83
2023-02-16T02:02:32.859Z,5.80
2023-02-16T02:05:37.096Z,5.75
2023-02-16T02:08:19.252Z,5.75
2023-02-16T02:11:14.395Z,5.74
2023-02-16T02:13:55.190Z,5.72
2023-02-16T02:16:28.832Z,5.64
2023-02-16T02:19:00.998Z,5.65
2023-02-16T02:22:16.776Z,5.63
2023-02-16T02:24:57.203Z,5.62
2023-02-16T02:27:34.450Z,5.60
2023-02-16T02:30:27.811Z,5.61
2023-02-16T02:33:32.867Z,5.57
2023-02-16T02:36:40.532Z,5.53
2023-02-16T02:39:31.289Z,5.55
2023-02-16T02:42:34.127Z,5.53
2023-02-16T02:45:23.347Z,5.53
2023-02-16T02:47:55.348Z,5.49
2023-02-16T02:51:12.274Z,5.48
2023-02-16T02:54:16.280Z,5.48
2023-02-16T02:57:45.174Z,5.46
2023-02-16T03:00:41.819Z,5.42
2023-02-16T03:03:20.860Z,5.44
2023-02-16T03:06:13.944Z,5.45
2023-02-16T03:08:51.993Z,5.43
2023-02-16T03:11:48.288Z,5.41
2023-02-16T03:14:31.278Z,5.32
2023-02-16T03:17:35.577Z,5.30
2023-02-16T03:20:31.619Z,5.31
2023-02-16T03:23:24.584Z,5.36
2023-02-16T03:26:15.431Z,5.27
2023-02-16T03:29:06.743Z,5.24
2023-02-16T03:31:40.294Z,5.23
2023-02-16T03:34:12.906Z,5.21
2023-02-16T03:36:52.913Z,5.30
2023-02-16T03:39:27.936Z,5.30
2023-02-16T03:41:59.933Z,5.26
2023-02-16T03:44:31.996Z,5.25
2023-02-16T03:47:04.025Z,5.30
2023-02-16T03:49:35.965Z,5.36
2023-02-16T03:52:07.940Z,5.34
2023-02-16T03:54:39.928Z,5.33
2023-02-16T03:57:11.861Z,5.27
2023-02-16T03:59:43.898Z,5.26
2023-02-16T04:02:15.977Z,5.32
2023-02-16T04:04:48.052Z,5.34
2023-02-16T04:07:20.134Z,5.33
2023-02-16T04:09:52.084Z,5.33
2023-02-16T04:12:36.355Z,5.33
2023-02-16T04:15:12.814Z,5.36
2023-02-16T04:17:45.314Z,5.27
2023-02-16T04:20:20.709Z,5.26
2023-02-16T04:22:53.538Z,5.22
2023-02-16T04:25:26.237Z,5.21
2023-02-16T04:27:58.374Z,5.26
2023-02-16T04:30:32.486Z,5.32
2023-02-16T04:33:04.688Z,5.31
2023-02-16T04:35:36.693Z,5.31
2023-02-16T04:38:08.758Z,5.28
2023-02-16T04:40:40.833Z,5.26
2023-02-16T04:43:12.804Z,5.31
2023-02-16T04:45:44.806Z,5.33
2023-02-16T04:48:16.757Z,5.39
2023-02-16T04:50:48.757Z,5.35
2023-02-16T04:53:20.745Z,5.39
2023-02-16T04:55:52.736Z,5.30
2023-02-16T04:58:24.823Z,5.37
2023-02-16T05:00:56.781Z,5.36
2023-02-16T05:03:28.942Z,5.44
2023-02-16T05:06:01.162Z,5.41
2023-02-16T05:08:33.143Z,5.33
2023-02-16T05:11:23.840Z,5.32
2023-02-16T05:14:18.805Z,5.31
2023-02-16T05:16:51.152Z,5.29
2023-02-16T05:19:23.160Z,5.28
2023-02-16T05:21:55.159Z,5.28
2023-02-16T05:24:28.540Z,5.30
2023-02-16T05:27:02.109Z,5.26
2023-02-16T05:29:34.727Z,5.26
2023-02-16T05:32:06.821Z,5.34
2023-02-16T05:34:38.959Z,5.31
2023-02-16T05:37:12.161Z,5.29
2023-02-16T05:39:44.831Z,5.33
2023-02-16T05:42:16.833Z,5.27
2023-02-16T05:44:48.967Z,5.33
2023-02-16T05:47:20.950Z,5.35
2023-02-16T05:49:52.942Z,5.44
2023-02-16T05:52:24.887Z,5.50
2023-02-16T05:54:56.857Z,5.51
2023-02-16T05:57:28.909Z,5.58
2023-02-16T06:00:01.257Z,5.68
2023-02-16T06:02:33.279Z,5.77
2023-02-16T06:05:05.589Z,5.74
2023-02-16T06:07:37.546Z,5.84
2023-02-16T06:10:10.094Z,5.75
2023-02-16T06:12:44.602Z,5.72
2023-02-16T06:15:18.062Z,5.75
2023-02-16T06:17:51.467Z,5.80
2023-02-16T06:20:23.450Z,5.82
2023-02-16T06:22:55.474Z,5.81
2023-02-16T06:25:27.524Z,5.82
2023-02-16T06:27:59.562Z,5.82
2023-02-16T06:30:31.806Z,5.74
2023-02-16T06:33:05.747Z,5.83
2023-02-16T06:35:37.730Z,5.86
2023-02-16T06:38:09.857Z,5.89
2023-02-16T06:40:41.878Z,5.91
2023-02-16T06:43:14.285Z,5.96
2023-02-16T06:45:47.273Z,6.04
2023-02-16T06:48:19.449Z,5.98
2023-02-16T06:50:52.083Z,6.06
2023-02-16T06:53:25.520Z,6.04
2023-02-16T06:55:57.609Z,6.13
2023-02-16T06:58:29.637Z,6.14
2023-02-16T07:01:01.669Z,6.04
2023-02-16T07:03:34.050Z,6.00
2023-02-16T07:06:07.052Z,6.07
2023-02-16T07:08:39.068Z,6.06
2023-02-16T07:11:11.506Z,6.15
2023-02-16T07:13:44.009Z,6.11
2023-02-16T07:16:16.535Z,6.27
2023-02-16T07:18:49.005Z,6.25
2023-02-16T07:21:21.048Z,6.38
2023-02-16T07:23:53.094Z,6.34
2023-02-16T07:26:25.079Z,6.35
2023-02-16T07:28:57.018Z,6.41
2023-02-16T07:31:29.173Z,6.47
2023-02-16T07:34:01.373Z,6.46
2023-02-16T07:36:33.547Z,6.43
2023-02-16T07:39:05.805Z,6.40
2023-02-16T07:41:37.835Z,6.52
2023-02-16T07:44:09.911Z,6.59
2023-02-16T07:46:41.872Z,6.70
2023-02-16T07:49:13.837Z,6.63
2023-02-16T07:51:45.892Z,6.62
2023-02-16T07:54:17.828Z,6.65
2023-02-16T07:56:49.840Z,6.68
2023-02-16T07:59:21.899Z,6.61
2023-02-16T08:01:54.009Z,6.73
2023-02-16T08:04:26.317Z,6.80
2023-02-16T08:06:58.463Z,6.88
2023-02-16T08:09:30.518Z,7.05
2023-02-16T08:12:02.699Z,7.10
2023-02-16T08:14:34.778Z,7.17
2023-02-16T08:17:08.129Z,7.15
2023-02-16T08:19:40.826Z,7.27
2023-02-16T08:22:12.852Z,7.37
2023-02-16T08:24:45.048Z,7.45
2023-02-16T08:27:17.233Z,7.54
2023-02-16T08:29:49.278Z,7.56
2023-02-16T08:32:21.414Z,7.55
2023-02-16T08:34:53.532Z,7.48
2023-02-16T08:37:25.555Z,7.56
2023-02-16T08:40:00.770Z,7.41
2023-02-16T08:42:32.998Z,7.52
2023-02-16T08:45:07.477Z,7.39
2023-02-16T08:47:39.515Z,7.36
2023-02-16T08:50:11.693Z,7.38
2023-02-16T08:52:43.721Z,7.50
2023-02-16T08:55:15.789Z,7.50
2023-02-16T08:57:48.137Z,7.50
2023-02-16T09:00:35.846Z,7.57
2023-02-16T09:03:07.988Z,7.71
2023-02-16T09:05:40.531Z,7.73
2023-02-16T09:08:12.923Z,7.73
2023-02-16T09:10:45.061Z,7.85
2023-02-16T09:13:17.064Z,7.90
2023-02-16T09:15:49.594Z,8.01
2023-02-16T09:18:21.696Z,7.88
2023-02-16T09:20:53.858Z,8.07
2023-02-16T09:23:26.118Z,8.21
2023-02-16T09:26:02.129Z,8.14
2023-02-16T09:28:36.366Z,8.19
2023-02-16T09:31:25.559Z,8.27
2023-02-16T09:34:17.045Z,8.35
2023-02-16T09:36:50.372Z,8.36
2023-02-16T09:39:22.935Z,8.49
2023-02-16T09:42:28.446Z,8.72
2023-02-16T09:45:14.281Z,8.89
2023-02-16T09:47:49.855Z,8.71
2023-02-16T09:50:50.715Z,8.70
2023-02-16T09:53:39.623Z,8.61
2023-02-16T09:56:28.189Z,8.83
2023-02-16T09:59:25.806Z,9.03
2023-02-16T10:02:32.578Z,9.13
2023-02-16T10:05:08.562Z,9.40
2023-02-16T10:08:09.513Z,9.52
2023-02-16T10:10:57.131Z,9.69
2023-02-16T10:13:47.293Z,9.87
2023-02-16T10:16:28.574Z,9.94
2023-02-16T10:19:09.476Z,10.10
2023-02-16T10:21:48.525Z,10.30
2023-02-16T10:24:20.954Z,10.33
2023-02-16T10:27:10.060Z,10.12
2023-02-16T10:29:42.820Z,9.82
2023-02-16T10:32:37.283Z,9.52
2023-02-16T10:35:15.417Z,9.72
2023-02-16T10:38:09.379Z,9.62
2023-02-16T10:41:00.988Z,9.64
2023-02-16T10:44:01.763Z,9.75
2023-02-16T10:46:44.366Z,9.59
2023-02-16T10:49:18.020Z,9.70
2023-02-16T10:51:52.367Z,9.74
2023-02-16T10:54:31.898Z,9.88
2023-02-16T10:57:20.560Z,10.00
2023-02-16T10:59:54.897Z,10.20
2023-02-16T11:02:41.680Z,10.32
2023-02-16T11:05:39.408Z,10.34
2023-02-16T11:08:12.969Z,10.39
2023-02-16T11:10:52.699Z,10.28
2023-02-16T11:13:34.299Z,10.37
2023-02-16T11:16:21.133Z,10.25
2023-02-16T11:19:13.553Z,10.11
2023-02-16T11:21:52.151Z,10.30
2023-02-16T11:24:32.089Z,10.56
2023-02-16T11:27:19.600Z,10.67
2023-02-16T11:29:51.712Z,10.77
2023-02-16T11:32:24.440Z,10.93
2023-02-16T11:34:57.706Z,10.86
2023-02-16T11:37:34.147Z,10.75
2023-02-16T11:40:21.659Z,10.84
2023-02-16T11:42:59.863Z,10.89
2023-02-16T11:45:35.599Z,10.70
2023-02-16T11:48:32.687Z,10.58
2023-02-16T11:51:09.262Z,10.86
2023-02-16T11:53:44.532Z,10.55
2023-02-16T11:56:29.847Z,10.59
2023-02-16T11:59:14.964Z,10.44
2023-02-16T12:02:17.437Z,10.54
2023-02-16T12:05:26.294Z,10.20
2023-02-16T12:08:58.335Z,10.13
2023-02-16T12:11:55.528Z,10.29
2023-02-16T12:15:26.585Z,10.18
2023-02-16T12:18:20.657Z,10.05
2023-02-16T12:21:45.637Z,9.90
2023-02-16T12:24:47.873Z,9.71
2023-02-16T12:27:41.958Z,9.74
2023-02-16T12:31:00.506Z,9.52
2023-02-16T12:33:57.675Z,9.54
2023-02-16T12:37:04.949Z,9.52
2023-02-16T12:39:46.296Z,9.44
2023-02-16T12:42:46.988Z,9.48
2023-02-16T12:45:28.250Z,9.53
2023-02-16T12:48:11.163Z,9.49
2023-02-16T12:50:46.261Z,9.62
2023-02-16T12:53:48.254Z,9.61
2023-02-16T12:56:27.614Z,9.46
2023-02-16T12:59:27.129Z,9.28
2023-02-16T13:02:01.924Z,9.31
2023-02-16T13:04:49.155Z,9.16
2023-02-16T13:07:38.482Z,9.21
2023-02-16T13:10:47.051Z,9.25
2023-02-16T13:13:25.564Z,9.09
2023-02-16T13:16:30.411Z,9.21
2023-02-16T13:19:03.284Z,9.45
2023-02-16T13:21:51.272Z,9.67
2023-02-16T13:25:08.029Z,9.81
2023-02-16T13:28:11.193Z,10.04
2023-02-16T13:31:01.739Z,9.88
2023-02-16T13:33:58.365Z,9.71
2023-02-16T13:37:25.529Z,9.39
2023-02-16T13:40:23.232Z,9.37
2023-02-16T13:43:01.352Z,9.29
2023-02-16T13:45:40.599Z,9.28
2023-02-16T13:48:48.237Z,9.20
2023-02-16T13:51:24.200Z,9.11
2023-02-16T13:53:58.701Z,9.11
2023-02-16T13:56:33.294Z,8.91
2023-02-16T13:59:17.394Z,8.89
2023-02-16T14:01:53.746Z,8.80
2023-02-16T14:04:25.670Z,8.90
2023-02-16T14:07:03.798Z,8.85
2023-02-16T14:09:38.556Z,8.77
2023-02-16T14:12:16.848Z,8.73
2023-02-16T14:14:51.835Z,8.74
2023-02-16T14:17:31.218Z,8.70
2023-02-16T14:20:09.321Z,8.64
2023-02-16T14:22:51.206Z,8.74
2023-02-16T14:25:23.120Z,8.82
2023-02-16T14:27:59.284Z,8.80
2023-02-16T14:30:35.794Z,8.85
2023-02-16T14:33:22.817Z,8.85
2023-02-16T14:36:00.569Z,8.85
2023-02-16T14:38:41.557Z,8.74
2023-02-16T14:41:35.568Z,8.68
2023-02-16T14:44:07.479Z,8.57
2023-02-16T14:47:22.087Z,8.55
2023-02-16T14:50:30.816Z,8.53
2023-02-16T14:53:28.021Z,8.56
2023-02-16T14:56:14.499Z,8.58
2023-02-16T14:59:07.073Z,8.53
2023-02-16T15:01:42.243Z,8.46
2023-02-16T15:04:32.158Z,8.42
2023-02-16T15:07:05.552Z,8.47
2023-02-16T15:09:42.706Z,8.47
2023-02-16T15:12:21.726Z,8.46
2023-02-16T15:15:04.140Z,8.36
2023-02-16T15:17:45.659Z,8.45
2023-02-16T15:20:24.966Z,8.49
2023-02-16T15:23:02.368Z,8.49
2023-02-16T15:25:41.100Z,8.43
2023-02-16T15:28:26.057Z,8.49
2023-02-16T15:31:07.559Z,8.44
2023-02-16T15:33:54.677Z,8.48
2023-02-16T15:36:43.533Z,8.53
2023-02-16T15:39:41.309Z,8.50
2023-02-16T15:42:29.133Z,8.43
2023-02-16T15:45:01.160Z,8.42
2023-02-16T15:47:34.076Z,8.39
2023-02-16T15:50:14.383Z,8.42
2023-02-16T15:52:46.521Z,8.42
2023-02-16T15:55:18.741Z,8.44
2023-02-16T15:57:51.326Z,8.45
2023-02-16T16:00:25.096Z,8.51
2023-02-16T16:03:00.830Z,8.51
2023-02-16T16:05:42.048Z,8.47
2023-02-16T16:08:17.502Z,8.43
2023-02-16T16:10:49.761Z,8.49
2023-02-16T16:13:26.919Z,8.47
2023-02-16T16:16:02.247Z,8.52
2023-02-16T16:18:50.766Z,8.54
2023-02-16T16:21:34.349Z,8.55
2023-02-16T16:24:10.028Z,8.48
2023-02-16T16:26:56.806Z,8.50
2023-02-16T16:29:47.618Z,8.50
2023-02-16T16:32:28.902Z,8.53
2023-02-16T16:35:01.017Z,8.56
2023-02-16T16:37:37.417Z,8.53
2023-02-16T16:40:18.817Z,8.56
2023-02-16T16:43:28.524Z,8.60
2023-02-16T16:46:30.439Z,8.53
2023-02-16T16:49:06.363Z,8.47
2023-02-16T16:51:44.091Z,8.46
2023-02-16T16:54:35.879Z,8.49
2023-02-16T16:57:17.498Z,8.49
2023-02-16T16:59:49.475Z,8.56
2023-02-16T17:02:21.426Z,8.52
2023-02-16T17:04:53.424Z,8.57
2023-02-16T17:07:25.417Z,8.51
2023-02-16T17:09:57.803Z,8.55
2023-02-16T17:12:30.099Z,8.58
2023-02-16T17:15:03.276Z,8.54
2023-02-16T17:17:35.553Z,8.54
2023-02-16T17:20:14.909Z,8.51
2023-02-16T17:22:47.212Z,8.51
2023-02-16T17:25:19.728Z,8.44
2023-02-16T17:27:51.861Z,8.47
2023-02-16T17:30:24.136Z,8.45
2023-02-16T17:32:56.190Z,8.41
2023-02-16T17:35:28.852Z,8.45
2023-02-16T17:38:19.601Z,8.48
2023-02-16T17:40:54.513Z,8.53
2023-02-16T17:43:27.628Z,8.54
2023-02-16T17:46:04.756Z,8.56
2023-02-16T17:48:38.228Z,8.51
2023-02-16T17:51:17.263Z,8.53
2023-02-16T17:53:50.520Z,8.58
2023-02-16T17:56:25.100Z,8.59
2023-02-16T17:58:57.267Z,8.63
2023-02-16T18:01:30.030Z,8.64
2023-02-16T18:04:04.183Z,8.63
2023-02-16T18:06:36.919Z,8.71
2023-02-16T18:09:16.067Z,8.67
2023-02-16T18:11:48.214Z,8.64
2023-02-16T18:14:20.338Z,8.66
2023-02-16T18:16:53.106Z,8.60
2023-02-16T18:19:26.668Z,8.59
2023-02-16T18:21:58.716Z,8.63
2023-02-16T18:24:31.655Z,8.63
2023-02-16T18:27:03.834Z,8.68
2023-02-16T18:29:35.883Z,8.61
2023-02-16T18:32:08.441Z,8.62
2023-02-16T18:34:40.706Z,8.65
2023-02-16T18:37:12.736Z,8.70
2023-02-16T18:39:44.892Z,8.68
2023-02-16T18:42:17.181Z,8.68
2023-02-16T18:44:50.756Z,8.63
2023-02-16T18:47:22.875Z,8.62
2023-02-16T18:49:56.417Z,8.66
2023-02-16T18:52:28.475Z,8.62
2023-02-16T18:55:00.581Z,8.56
2023-02-16T18:57:32.620Z,8.58
2023-02-16T19:00:06.925Z,8.56
2023-02-16T19:02:41.062Z,8.49
2023-02-16T19:05:13.244Z,8.44
2023-02-16T19:07:45.230Z,8.46
2023-02-16T19:10:19.079Z,8.44
2023-02-16T19:12:51.590Z,8.42
2023-02-16T19:15:23.851Z,8.50
2023-02-16T19:17:55.872Z,8.50
2023-02-16T19:20:29.731Z,8.46
2023-02-16T19:23:01.746Z,8.51
2023-02-16T19:25:33.714Z,8.52
2023-02-16T19:28:05.858Z,8.53
2023-02-16T19:30:38.076Z,8.52
2023-02-16T19:33:10.115Z,8.53
2023-02-16T19:35:42.163Z,8.51
2023-02-16T19:38:15.461Z,8.44
2023-02-16T19:40:48.348Z,8.45
2023-02-16T19:43:21.327Z,8.45
2023-02-16T19:45:53.500Z,8.53
2023-02-16T19:48:25.500Z,8.49
2023-02-16T19:50:59.532Z,8.40
2023-02-16T19:53:32.678Z,8.44
2023-02-16T19:56:07.634Z,8.43
2023-02-16T19:58:39.970Z,8.44
2023-02-16T20:01:24.466Z,8.44
2023-02-16T20:03:58.153Z,8.39
2023-02-16T20:06:32.997Z,8.39
2023-02-16T20:09:05.700Z,8.35
2023-02-16T20:11:39.665Z,8.42
2023-02-16T20:14:12.565Z,8.45
2023-02-16T20:16:44.662Z,8.51
2023-02-16T20:19:16.650Z,8.41
2023-02-16T20:21:48.683Z,8.34
2023-02-16T20:24:20.864Z,8.37
2023-02-16T20:26:52.906Z,8.39
2023-02-16T20:29:25.192Z,8.38
2023-02-16T20:31:58.745Z,8.48
2023-02-16T20:34:32.319Z,8.37
2023-02-16T20:37:04.491Z,8.44
2023-02-16T20:39:36.532Z,8.37
2023-02-16T20:42:08.913Z,8.48
2023-02-16T20:44:43.547Z,8.55
2023-02-16T20:47:18.891Z,8.53
2023-02-16T20:50:00.634Z,8.58
2023-02-16T20:52:32.656Z,8.50
2023-02-16T20:55:04.842Z,8.50
2023-02-16T20:57:37.692Z,8.51
2023-02-16T21:00:17.223Z,8.55
2023-02-16T21:02:53.082Z,8.53
2023-02-16T21:05:25.150Z,8.49
2023-02-16T21:07:57.325Z,8.54
2023-02-16T21:10:29.382Z,8.60
2023-02-16T21:13:01.411Z,8.49
2023-02-16T21:15:36.704Z,8.51
2023-02-16T21:18:08.772Z,8.61
2023-02-16T21:20:41.108Z,8.64
2023-02-16T21:23:14.630Z,8.58
2023-02-16T21:25:46.896Z,8.67
2023-02-16T21:28:21.425Z,8.73
2023-02-16T21:30:53.993Z,8.80
2023-02-16T21:33:26.191Z,8.73
2023-02-16T21:36:38.938Z,8.75
2023-02-16T21:39:13.045Z,8.73
2023-02-16T21:41:45.182Z,8.69
2023-02-16T21:44:18.174Z,8.69
2023-02-16T21:46:59.298Z,8.77
2023-02-16T21:49:31.687Z,8.83
2023-02-16T21:52:03.897Z,8.83
2023-02-16T21:54:54.411Z,8.82
2023-02-16T21:57:26.461Z,8.88
2023-02-16T21:59:58.494Z,8.80
2023-02-16T22:02:30.461Z,8.78
2023-02-16T22:05:02.448Z,8.82
2023-02-16T22:07:34.471Z,8.89
2023-02-16T22:10:07.479Z,8.88
2023-02-16T22:12:39.489Z,8.92
2023-02-16T22:15:11.478Z,8.96
2023-02-16T22:17:43.608Z,8.96
2023-02-16T22:20:17.164Z,9.01
2023-02-16T22:22:52.583Z,9.02
2023-02-16T22:25:24.564Z,9.06
2023-02-16T22:27:56.602Z,8.99
2023-02-16T22:30:28.730Z,8.95
2023-02-16T22:33:00.736Z,9.02
2023-02-16T22:35:33.840Z,9.04
2023-02-16T22:38:05.956Z,9.03
2023-02-16T22:40:38.264Z,8.97
2023-02-16T22:43:10.395Z,8.94
2023-02-16T22:45:42.472Z,9.02
2023-02-16T22:48:14.523Z,9.00
2023-02-16T22:51:01.389Z,9.07
2023-02-16T22:53:34.530Z,9.08
2023-02-16T22:56:09.820Z,9.12
2023-02-16T22:58:42.047Z,9.18
2023-02-16T23:01:20.268Z,9.14
2023-02-16T23:03:57.492Z,9.16
2023-02-16T23:06:36.622Z,9.08
2023-02-16T23:09:21.595Z,9.08
2023-02-16T23:11:53.637Z,9.05
2023-02-16T23:14:26.623Z,9.09
2023-02-16T23:16:59.447Z,9.16
2023-02-16T23:19:32.567Z,9.20
2023-02-16T23:22:04.538Z,9.25
2023-02-16T23:24:36.688Z,9.15
2023-02-16T23:27:08.759Z,9.09
2023-02-16T23:29:40.685Z,9.13
2023-02-16T23:32:12.645Z,9.12
2023-02-16T23:34:44.659Z,9.25
2023-02-16T23:37:16.702Z,9.15
2023-02-16T23:39:48.669Z,9.15
2023-02-16T23:42:21.528Z,9.22
2023-02-16T23:44:57.140Z,9.27
2023-02-16T23:47:29.284Z,9.37
2023-02-16T23:50:01.488Z,9.47
2023-02-16T23:52:36.370Z,9.43
2023-02-16T23:55:16.397Z,9.33
2023-02-16T23:57:48.375Z,9.35
